SBUG/URG METAR and TAF weather

Enter ICAO airport designator
Station Type Date Time Source
SBUG METAR 2020/05/15 11:00 UTC NOAA

SBUG 151100Z 05004KT CAVOK 08/05 Q1022


Station Type Date Time Source
SBUG Decoded METAR 2020/05/15 11:00 UTC NOAA

Uruguaiana Aeroporto , Brazil (SBUG) 29-47S 057-02W 74M
May 15, 2020 - 07:00 AM EDT / 2020.05.15 1100 UTC
Wind: from the NE (050 degrees) at 5 MPH (4 KT):0
Visibility: greater than 7 mile(s):0
Temperature: 46 F (8 C)
Dew Point: 41 F (5 C)
Relative Humidity: 81%
Pressure (altimeter): 30.18 in. Hg (1022 hPa)
ob: SBUG 151100Z 05004KT CAVOK 08/05 Q1022
cycle: 11

Station Type Date Time Source
SBUG TAF 2021/02/28 18:33 UTC NOAA

TAF SBUG 281500Z 2818/0106 07013KT CAVOK TX33/2818Z TN18/0106Z
BECMG 2819/2821 07008KT
RMK PDY

Example: see airport list